Koyo — JD2279 — position and weather

sailwx.info

Track history (hours):
 
Tides and Currents Weather Stations Pressure Air Temp Water Temp Dewpoint Dewpoint Depression Visibility Wind Speed Wind Dir Waves Ship Positions

Koyo

Last reported at 2017-Aug-17 20:51 UTC. Time now 2017-Aug-17 21:12 UTC.
Position N 34°39' E 135°15'.

Length 80 m; draft 3.7 m.

Type: Cargo ship. MMSI: 431301812.

Date/timePositionNaut miles runAvg speedWind from/ knotsBaromVisibWave heightAir tempDewpointWater temp
2017-Aug-17 20:51N 34°39' E 135°15'0 0.0
2017-Aug-17 20:21N 34°39' E 135°15'0 0.0
2017-Aug-17 19:15N 34°39' E 135°15'0 0.0
2017-Aug-17 18:51N 34°39' E 135°15'0 0.0
2017-Aug-17 18:27N 34°39' E 135°15'0 0.0
2017-Aug-17 17:57N 34°39' E 135°15'0 0.0
2017-Aug-17 17:27N 34°39' E 135°15'0 0.0
2017-Aug-17 16:57N 34°39' E 135°15'0 0.1
2017-Aug-17 16:30N 34°39' E 135°15'510.5
2017-Aug-17 16:00N 34°36' E 135°10'612.7
2017-Aug-17 15:30N 34°36' E 135°02'713.1
2017-Aug-17 14:58N 34°35' E 134°53'1 0.0
2017-Aug-16 05:07N 34°36' E 134°54'213.8
2017-Aug-16 04:56N 34°37' E 134°56'613.1
2017-Aug-16 04:30N 34°36' E 135°03'611.5
2017-Aug-16 04:00N 34°37' E 135°10'611.8
2017-Aug-16 03:30N 34°38' E 135°17'611.1
2017-Aug-16 03:00N 34°38' E 135°24'1 2.0
2017-Aug-16 02:28N 34°38' E 135°25'0 0.0
2017-Aug-16 02:00N 34°38' E 135°25'4 8.3
2017-Aug-16 01:30N 34°36' E 135°20'611.1
2017-Aug-16 01:00N 34°39' E 135°15'0 0.0
2017-Aug-16 00:27N 34°39' E 135°15'0 0.0
2017-Aug-15 23:57N 34°39' E 135°15'0 0.0
2017-Aug-15 23:27N 34°39' E 135°15'0 0.6
2017-Aug-15 23:00N 34°39' E 135°15'0 0.3
2017-Aug-15 21:39N 34°39' E 135°15'0 0.1
2017-Aug-15 21:27N 34°39' E 135°15'0 0.1
2017-Aug-15 20:51N 34°39' E 135°15'0 0.0
2017-Aug-15 20:27N 34°39' E 135°15'1 3.2
2017-Aug-15 20:00N 34°37' E 135°14'611.1
2017-Aug-15 19:30N 34°35' E 135°08'510.3
2017-Aug-15 19:00N 34°36' E 135°02'510.2
2017-Aug-15 18:28N 34°36' E 134°55'510.1
2017-Aug-15 17:56N 34°33' E 134°49'4 0.1
2017-Aug-14 04:56N 34°35' E 134°53'614.7
2017-Aug-14 04:30N 34°38' E 134°60'612.9
2017-Aug-14 04:00N 34°37' E 135°08'612.7
2017-Aug-14 03:30N 34°37' E 135°15'612.0
2017-Aug-14 03:00N 34°38' E 135°23'2 4.4
2017-Aug-14 02:29N 34°38' E 135°25'0 0.0
2017-Aug-14 02:00N 34°38' E 135°25'5 9.6
2017-Aug-14 01:29N 34°37' E 135°19'5 8.8
2017-Aug-14 00:57N 34°40' E 135°14'0 0.0
2017-Aug-14 00:21N 34°40' E 135°14'0 0.0
2017-Aug-13 23:57N 34°40' E 135°14'0 0.0
2017-Aug-13 23:27N 34°40' E 135°14'0 0.9
2017-Aug-13 23:01N 34°39' E 135°15'1 0.9
2017-Aug-13 22:16N 34°39' E 135°15'0 0.0
2017-Aug-13 21:58N 34°39' E 135°15'0 0.0
2017-Aug-13 21:22N 34°39' E 135°15'0 0.0
2017-Aug-13 20:58N 34°39' E 135°15'0 0.0
2017-Aug-13 20:28N 34°39' E 135°15'0 0.0
2017-Aug-13 19:46N 34°39' E 135°15'0 0.0
2017-Aug-13 19:28N 34°39' E 135°15'0 0.1
2017-Aug-13 18:58N 34°39' E 135°15'0 0.0
2017-Aug-13 18:28N 34°39' E 135°15'0 0.0
2017-Aug-13 17:58N 34°39' E 135°15'0 0.1
2017-Aug-13 17:28N 34°39' E 135°15'0 0.0
2017-Aug-13 16:58N 34°39' E 135°15'0 0.0
2017-Aug-13 16:28N 34°39' E 135°15'0 0.0
2017-Aug-13 15:58N 34°39' E 135°15'0 0.0
2017-Aug-13 15:28N 34°39' E 135°15'1 2.0
2017-Aug-13 15:00N 34°38' E 135°15'611.6
2017-Aug-13 14:30N 34°36' E 135°08'510.5
2017-Aug-13 14:00N 34°36' E 135°02'5 9.1
2017-Aug-13 13:30N 34°36' E 134°56'  
2017-Aug-11 02:29N 34°34' E 134°49'815.4
2017-Aug-11 01:58N 34°37' E 134°58'714.6
2017-Aug-11 01:30N 34°36' E 135°06'713.9
2017-Aug-11 01:00N 34°38' E 135°14'2 3.6
2017-Aug-11 00:29N 34°39' E 135°14'0 0.0
2017-Aug-10 23:53N 34°39' E 135°14'0 0.0
2017-Aug-10 23:29N 34°39' E 135°14'0 0.5
2017-Aug-10 23:00N 34°39' E 135°15'1 1.3
2017-Aug-10 22:26N 34°39' E 135°15'0 0.0
2017-Aug-10 21:50N 34°39' E 135°15'1 1.7
2017-Aug-10 21:30N 34°38' E 135°15'510.6
2017-Aug-10 21:00N 34°36' E 135°09'612.1
2017-Aug-10 20:30N 34°36' E 135°02'712.9
2017-Aug-10 20:00N 34°35' E 134°54'5 0.2
2017-Aug-09 14:04N 34°34' E 134°48'314.8
2017-Aug-09 13:51N 34°35' E 134°52'515.7
2017-Aug-09 13:30N 34°37' E 134°58'714.4
2017-Aug-09 13:00N 34°36' E 135°06'712.9
2017-Aug-09 12:30N 34°37' E 135°14'613.0
2017-Aug-09 12:01N 34°39' E 135°22'3 6.1
2017-Aug-09 11:30N 34°38' E 135°25'0 0.0
2017-Aug-09 10:54N 34°38' E 135°25'3 7.1
2017-Aug-09 10:30N 34°37' E 135°22'611.8
2017-Aug-09 10:00N 34°39' E 135°15'1 0.9
2017-Aug-09 09:13N 34°40' E 135°14'0 0.0
2017-Aug-09 08:31N 34°40' E 135°14'0 0.0
2017-Aug-09 08:01N 34°40' E 135°14'0 0.0
2017-Aug-09 07:55N 34°40' E 135°14'0 0.0
2017-Aug-09 07:25N 34°40' E 135°14'0 1.0
2017-Aug-09 07:00N 34°39' E 135°15'1 1.1
2017-Aug-09 06:27N 34°39' E 135°15'0 0.1
2017-Aug-09 05:51N 34°39' E 135°15'0 0.0
2017-Aug-09 05:27N 34°39' E 135°15'0 0.0
2017-Aug-09 04:57N 34°39' E 135°15'0 0.0
2017-Aug-09 04:27N 34°39' E 135°15'0 0.0
2017-Aug-09 03:57N 34°39' E 135°15'0 0.0
2017-Aug-09 03:27N 34°39' E 135°15'0 0.0
2017-Aug-09 02:51N 34°39' E 135°15'0 0.0
2017-Aug-09 02:21N 34°39' E 135°15'0 0.1
2017-Aug-09 01:57N 34°39' E 135°15'0 0.0
2017-Aug-09 01:27N 34°39' E 135°15'0 0.0
2017-Aug-09 00:57N 34°39' E 135°15'0 0.1
2017-Aug-09 00:27N 34°39' E 135°15'0 0.0
2017-Aug-08 23:57N 34°39' E 135°15'0 0.0
2017-Aug-08 23:27N 34°39' E 135°15'0 0.0
2017-Aug-08 22:45N 34°39' E 135°15'0 0.0
2017-Aug-08 22:15N 34°39' E 135°15'0 0.0
2017-Aug-08 21:57N 34°39' E 135°15'0 0.0
2017-Aug-08 21:27N 34°39' E 135°15'0 0.0
2017-Aug-08 20:57N 34°39' E 135°15'0 0.0
2017-Aug-08 20:27N 34°39' E 135°15'0 0.0
2017-Aug-08 19:57N 34°39' E 135°15'0 0.0
2017-Aug-08 19:21N 34°39' E 135°15'0 0.0
2017-Aug-08 18:51N 34°39' E 135°15'0 0.0
2017-Aug-08 18:21N 34°39' E 135°15'0 0.1
2017-Aug-08 18:00N 34°39' E 135°15'4 8.8
2017-Aug-08 17:30N 34°36' E 135°10'612.1
2017-Aug-08 17:00N 34°35' E 135°03'713.1
2017-Aug-08 16:29N 34°35' E 134°55'612.8
2017-Aug-08 16:01N 34°33' E 134°48'  
Track history (hours):
 
Tides and Currents Weather Stations Pressure Air Temp Water Temp Dewpoint Dewpoint Depression Visibility Wind Speed Wind Dir Waves Ship Positions

Koyo

Last reported at 2017-Aug-17 20:51 UTC. Time now 2017-Aug-17 21:12 UTC.
Position N 34°39' E 135°15'.

Length 80 m; draft 3.7 m.

Type: Cargo ship. MMSI: 431301812.

Date/timePositionNaut miles runAvg speedWind from/ knotsBaromVisibWave heightAir tempDewpointWater temp
2017-Aug-17 20:51N 34°39' E 135°15'0 0.0
2017-Aug-17 20:21N 34°39' E 135°15'0 0.0
2017-Aug-17 19:15N 34°39' E 135°15'0 0.0
2017-Aug-17 18:51N 34°39' E 135°15'0 0.0
2017-Aug-17 18:27N 34°39' E 135°15'0 0.0
2017-Aug-17 17:57N 34°39' E 135°15'0 0.0
2017-Aug-17 17:27N 34°39' E 135°15'0 0.0
2017-Aug-17 16:57N 34°39' E 135°15'0 0.1
2017-Aug-17 16:30N 34°39' E 135°15'510.5
2017-Aug-17 16:00N 34°36' E 135°10'612.7
2017-Aug-17 15:30N 34°36' E 135°02'713.1
2017-Aug-17 14:58N 34°35' E 134°53'1 0.0
2017-Aug-16 05:07N 34°36' E 134°54'213.8
2017-Aug-16 04:56N 34°37' E 134°56'613.1
2017-Aug-16 04:30N 34°36' E 135°03'611.5
2017-Aug-16 04:00N 34°37' E 135°10'611.8
2017-Aug-16 03:30N 34°38' E 135°17'611.1
2017-Aug-16 03:00N 34°38' E 135°24'1 2.0
2017-Aug-16 02:28N 34°38' E 135°25'0 0.0
2017-Aug-16 02:00N 34°38' E 135°25'4 8.3
2017-Aug-16 01:30N 34°36' E 135°20'611.1
2017-Aug-16 01:00N 34°39' E 135°15'0 0.0
2017-Aug-16 00:27N 34°39' E 135°15'0 0.0
2017-Aug-15 23:57N 34°39' E 135°15'0 0.0
2017-Aug-15 23:27N 34°39' E 135°15'0 0.6
2017-Aug-15 23:00N 34°39' E 135°15'0 0.3
2017-Aug-15 21:39N 34°39' E 135°15'0 0.1
2017-Aug-15 21:27N 34°39' E 135°15'0 0.1
2017-Aug-15 20:51N 34°39' E 135°15'0 0.0
2017-Aug-15 20:27N 34°39' E 135°15'1 3.2
2017-Aug-15 20:00N 34°37' E 135°14'611.1
2017-Aug-15 19:30N 34°35' E 135°08'510.3
2017-Aug-15 19:00N 34°36' E 135°02'510.2
2017-Aug-15 18:28N 34°36' E 134°55'510.1
2017-Aug-15 17:56N 34°33' E 134°49'4 0.1
2017-Aug-14 04:56N 34°35' E 134°53'614.7
2017-Aug-14 04:30N 34°38' E 134°60'612.9
2017-Aug-14 04:00N 34°37' E 135°08'612.7
2017-Aug-14 03:30N 34°37' E 135°15'612.0
2017-Aug-14 03:00N 34°38' E 135°23'2 4.4
2017-Aug-14 02:29N 34°38' E 135°25'0 0.0
2017-Aug-14 02:00N 34°38' E 135°25'5 9.6
2017-Aug-14 01:29N 34°37' E 135°19'5 8.8
2017-Aug-14 00:57N 34°40' E 135°14'0 0.0
2017-Aug-14 00:21N 34°40' E 135°14'0 0.0
2017-Aug-13 23:57N 34°40' E 135°14'0 0.0
2017-Aug-13 23:27N 34°40' E 135°14'0 0.9
2017-Aug-13 23:01N 34°39' E 135°15'1 0.9
2017-Aug-13 22:16N 34°39' E 135°15'0 0.0
2017-Aug-13 21:58N 34°39' E 135°15'0 0.0
2017-Aug-13 21:22N 34°39' E 135°15'0 0.0
2017-Aug-13 20:58N 34°39' E 135°15'0 0.0
2017-Aug-13 20:28N 34°39' E 135°15'0 0.0
2017-Aug-13 19:46N 34°39' E 135°15'0 0.0
2017-Aug-13 19:28N 34°39' E 135°15'0 0.1
2017-Aug-13 18:58N 34°39' E 135°15'0 0.0
2017-Aug-13 18:28N 34°39' E 135°15'0 0.0
2017-Aug-13 17:58N 34°39' E 135°15'0 0.1
2017-Aug-13 17:28N 34°39' E 135°15'0 0.0
2017-Aug-13 16:58N 34°39' E 135°15'0 0.0
2017-Aug-13 16:28N 34°39' E 135°15'0 0.0
2017-Aug-13 15:58N 34°39' E 135°15'0 0.0
2017-Aug-13 15:28N 34°39' E 135°15'1 2.0
2017-Aug-13 15:00N 34°38' E 135°15'611.6
2017-Aug-13 14:30N 34°36' E 135°08'510.5
2017-Aug-13 14:00N 34°36' E 135°02'5 9.1
2017-Aug-13 13:30N 34°36' E 134°56'  
2017-Aug-11 02:29N 34°34' E 134°49'815.4
2017-Aug-11 01:58N 34°37' E 134°58'714.6
2017-Aug-11 01:30N 34°36' E 135°06'713.9
2017-Aug-11 01:00N 34°38' E 135°14'2 3.6
2017-Aug-11 00:29N 34°39' E 135°14'0 0.0
2017-Aug-10 23:53N 34°39' E 135°14'0 0.0
2017-Aug-10 23:29N 34°39' E 135°14'0 0.5
2017-Aug-10 23:00N 34°39' E 135°15'1 1.3
2017-Aug-10 22:26N 34°39' E 135°15'0 0.0
2017-Aug-10 21:50N 34°39' E 135°15'1 1.7
2017-Aug-10 21:30N 34°38' E 135°15'510.6
2017-Aug-10 21:00N 34°36' E 135°09'612.1
2017-Aug-10 20:30N 34°36' E 135°02'712.9
2017-Aug-10 20:00N 34°35' E 134°54'5 0.2
2017-Aug-09 14:04N 34°34' E 134°48'314.8
2017-Aug-09 13:51N 34°35' E 134°52'515.7
2017-Aug-09 13:30N 34°37' E 134°58'714.4
2017-Aug-09 13:00N 34°36' E 135°06'712.9
2017-Aug-09 12:30N 34°37' E 135°14'613.0
2017-Aug-09 12:01N 34°39' E 135°22'3 6.1
2017-Aug-09 11:30N 34°38' E 135°25'0 0.0
2017-Aug-09 10:54N 34°38' E 135°25'3 7.1
2017-Aug-09 10:30N 34°37' E 135°22'611.8
2017-Aug-09 10:00N 34°39' E 135°15'1 0.9
2017-Aug-09 09:13N 34°40' E 135°14'0 0.0
2017-Aug-09 08:31N 34°40' E 135°14'0 0.0
2017-Aug-09 08:01N 34°40' E 135°14'0 0.0
2017-Aug-09 07:55N 34°40' E 135°14'0 0.0
2017-Aug-09 07:25N 34°40' E 135°14'0 1.0
2017-Aug-09 07:00N 34°39' E 135°15'1 1.1
2017-Aug-09 06:27N 34°39' E 135°15'0 0.1
2017-Aug-09 05:51N 34°39' E 135°15'0 0.0
2017-Aug-09 05:27N 34°39' E 135°15'0 0.0
2017-Aug-09 04:57N 34°39' E 135°15'0 0.0
2017-Aug-09 04:27N 34°39' E 135°15'0 0.0
2017-Aug-09 03:57N 34°39' E 135°15'0 0.0
2017-Aug-09 03:27N 34°39' E 135°15'0 0.0
2017-Aug-09 02:51N 34°39' E 135°15'0 0.0
2017-Aug-09 02:21N 34°39' E 135°15'0 0.1
2017-Aug-09 01:57N 34°39' E 135°15'0 0.0
2017-Aug-09 01:27N 34°39' E 135°15'0 0.0
2017-Aug-09 00:57N 34°39' E 135°15'0 0.1
2017-Aug-09 00:27N 34°39' E 135°15'0 0.0
2017-Aug-08 23:57N 34°39' E 135°15'0 0.0
2017-Aug-08 23:27N 34°39' E 135°15'0 0.0
2017-Aug-08 22:45N 34°39' E 135°15'0 0.0
2017-Aug-08 22:15N 34°39' E 135°15'0 0.0
2017-Aug-08 21:57N 34°39' E 135°15'0 0.0
2017-Aug-08 21:27N 34°39' E 135°15'0 0.0
2017-Aug-08 20:57N 34°39' E 135°15'0 0.0
2017-Aug-08 20:27N 34°39' E 135°15'0 0.0
2017-Aug-08 19:57N 34°39' E 135°15'0 0.0
2017-Aug-08 19:21N 34°39' E 135°15'0 0.0
2017-Aug-08 18:51N 34°39' E 135°15'0 0.0
2017-Aug-08 18:21N 34°39' E 135°15'0 0.1
2017-Aug-08 18:00N 34°39' E 135°15'4 8.8
2017-Aug-08 17:30N 34°36' E 135°10'612.1
2017-Aug-08 17:00N 34°35' E 135°03'713.1
2017-Aug-08 16:29N 34°35' E 134°55'612.8
2017-Aug-08 16:01N 34°33' E 134°48'  

Dump ship's entire track history